Main page
METAR-TAF:

METAR-TAF

Airports :

Kaltag Airport

Kaltag, Alaska, United States

latitude: 64-19N, longitude: 158-44W, elevation: 177 ft

Current weather observation

The report was made 2 hours and 49 minutes ago, at 01:53 UTC
Wind 5 mph from the Southwest
Temperature 1°F
Humidity 84%
Pressure 29.63 in. Hg
Visibility: 10 miles
Overcast at a height of 700 ft

METAR: PAKV 070153Z AUTO 23004KT 10SM OVC007 M17/M19 A2963 RMK AO2 SLP041 T11721194 TSNO

Time: 19:42 (04:42 UTC)


TAF: missing

Weather observations and forecasts of more than 4000 airports (METAR and TAF reports).

The available stations are represented by yellow and red dots on the map.

Hover mouse over dot to see the name of the station.

Then click to see weather observations and forecasts.

To change the map : click on the green buttons with a black cross to zoom in, on the green button with a dash to zoom out, or on the green arrows for adjacent maps.


METAR-TAF: